Time;durP1;ratioP1;P1;durP2;ratioP2;P2;SDS_P1;SDS_P2;PMS_P1;PMS_P2;Temp;Humidity;BMP_temperature;BMP_pressure;BME280_temperature;BME280_humidity;BME280_pressure;Samples;Min_cycle;Max_cycle;Signal;HPM_P1;HPM_P2
2022/06/25 00:01:46;;;;;;;37.13;33.17;;;18.30;99.90;;;;;;5040947;28;20045;-58
2022/06/25 00:06:56;;;;;;;37.53;33.67;;;18.30;99.90;;;;;;5040163;28;20052;-58
2022/06/25 00:09:22;;;;;;;39.00;34.72;;;18.30;99.90;;;;;;5041186;28;20061;-58
2022/06/25 00:14:32;;;;;;;36.08;32.47;;;18.30;99.90;;;;;;5040767;28;20076;-57
2022/06/25 00:16:58;;;;;;;38.88;34.78;;;18.30;99.90;;;;;;5040603;28;20042;-57
2022/06/25 00:19:23;;;;;;;40.55;36.38;;;18.20;99.90;;;;;;5040121;28;20079;-57
2022/06/25 00:21:50;;;;;;;44.80;40.05;;;18.20;99.90;;;;;;5032564;28;20057;-57
2022/06/25 00:24:16;;;;;;;42.35;37.80;;;18.20;99.90;;;;;;5019461;28;20569;-58
2022/06/25 00:26:43;;;;;;;39.13;34.95;;;18.10;99.90;;;;;;5021466;28;20037;-58
2022/06/25 00:29:10;;;;;;;40.92;36.83;;;18.20;99.90;;;;;;5019551;28;20049;-58
2022/06/25 00:31:36;;;;;;;40.35;36.20;;;18.10;99.90;;;;;;5021189;28;20038;-58
2022/06/25 00:34:03;;;;;;;42.10;37.30;;;18.20;99.90;;;;;;5020319;28;20050;-58
2022/06/25 00:36:28;;;;;;;39.35;34.70;;;18.10;99.90;;;;;;5020242;28;20034;-58
2022/06/25 00:38:54;;;;;;;40.50;35.88;;;18.10;99.90;;;;;;5020705;28;20127;-58
2022/06/25 00:41:20;;;;;;;39.53;35.42;;;18.10;99.90;;;;;;5019623;28;20045;-58
2022/06/25 00:43:46;;;;;;;40.47;36.40;;;18.10;99.90;;;;;;5020922;28;20042;-58
2022/06/25 00:46:12;;;;;;;38.08;34.13;;;18.10;99.90;;;;;;5019504;28;20045;-57
2022/06/25 00:48:38;;;;;;;38.60;34.67;;;18.00;99.90;;;;;;5019339;28;20053;-58
2022/06/25 00:51:26;;;;;;;38.63;34.75;;;18.10;99.90;;;;;;5023202;28;20052;-58
2022/06/25 00:53:55;;;;;;;38.65;34.70;;;18.00;99.90;;;;;;5039369;28;20041;-59
2022/06/25 00:56:23;;;;;;;36.33;32.53;;;18.00;99.90;;;;;;5040515;28;20053;-58
2022/06/25 00:58:52;;;;;;;38.08;34.15;;;18.00;99.90;;;;;;5038964;28;20053;-58
2022/06/25 01:01:18;;;;;;;36.05;32.25;;;18.00;99.90;;;;;;5040490;28;20128;-58
2022/06/25 01:03:44;;;;;;;36.75;32.92;;;17.90;99.90;;;;;;5039164;28;20042;-56
2022/06/25 01:06:09;;;;;;;37.20;33.28;;;17.90;99.90;;;;;;5039874;28;20042;-58
2022/06/25 01:08:36;;;;;;;35.75;32.15;;;17.90;99.90;;;;;;5039661;28;20041;-58
2022/06/25 01:11:02;;;;;;;36.55;32.65;;;17.90;99.90;;;;;;5038801;28;20046;-58
2022/06/25 01:13:29;;;;;;;33.42;29.92;;;17.90;99.90;;;;;;5040250;28;20034;-58
2022/06/25 01:15:54;;;;;;;36.67;32.85;;;17.90;99.90;;;;;;5038372;28;20501;-56
2022/06/25 01:18:20;;;;;;;31.90;28.50;;;17.90;99.90;;;;;;5040176;28;20651;-59
2022/06/25 01:20:46;;;;;;;37.13;31.90;;;18.00;99.90;;;;;;5038828;28;20470;-58
2022/06/25 01:23:13;;;;;;;36.15;32.20;;;17.90;99.90;;;;;;5019846;28;20034;-58
2022/06/25 01:25:40;;;;;;;37.70;33.90;;;17.90;99.90;;;;;;5019795;28;20046;-57
2022/06/25 01:28:07;;;;;;;35.08;31.33;;;17.80;99.90;;;;;;5018924;28;20057;-58
2022/06/25 01:30:34;;;;;;;38.72;34.60;;;17.80;99.90;;;;;;5020293;28;20049;-57
2022/06/25 01:33:00;;;;;;;35.03;31.50;;;17.80;99.90;;;;;;5018525;28;20050;-59
2022/06/25 01:35:26;;;;;;;35.78;31.63;;;17.80;99.90;;;;;;5019589;28;20391;-58
2022/06/25 01:37:51;;;;;;;37.47;33.47;;;17.90;99.90;;;;;;5018983;28;20105;-58
2022/06/25 01:40:17;;;;;;;37.58;33.58;;;17.80;99.90;;;;;;5019514;28;20041;-57
2022/06/25 01:42:58;;;;;;;34.05;30.48;;;17.80;99.90;;;;;;5019454;28;20045;-57
2022/06/25 01:45:25;;;;;;;36.33;32.58;;;17.80;99.90;;;;;;5018207;28;20045;-58
2022/06/25 01:47:51;;;;;;;34.38;30.83;;;17.70;99.90;;;;;;5020041;28;20042;-57
2022/06/25 01:50:17;;;;;;;33.75;30.35;;;17.70;99.90;;;;;;5016858;28;20437;-58
2022/06/25 01:52:43;;;;;;;39.03;34.65;;;17.80;99.90;;;;;;5036650;28;20065;-58
2022/06/25 01:55:09;;;;;;;33.00;29.38;;;17.70;99.90;;;;;;5038459;28;20050;-57
2022/06/25 01:57:36;;;;;;;35.17;31.63;;;17.70;99.90;;;;;;5037889;28;20048;-58
2022/06/25 02:00:07;;;;;;;33.88;30.38;;;17.70;99.90;;;;;;5037816;28;20128;-58
2022/06/25 02:02:35;;;;;;;34.00;30.60;;;17.70;99.90;;;;;;5036907;28;20037;-58
2022/06/25 02:05:01;;;;;;;35.28;31.88;;;17.70;99.90;;;;;;5039855;28;20045;-58
2022/06/25 02:07:27;;;;;;;34.72;31.15;;;17.70;99.90;;;;;;5037851;28;20041;-58
2022/06/25 02:09:52;;;;;;;35.47;31.75;;;17.70;99.90;;;;;;5039473;28;20524;-59
2022/06/25 02:12:18;;;;;;;33.35;29.95;;;17.70;99.90;;;;;;5038517;28;20046;-58
2022/06/25 02:14:44;;;;;;;33.50;30.00;;;17.60;99.90;;;;;;5038688;28;20478;-57
2022/06/25 02:17:09;;;;;;;35.97;32.25;;;17.70;99.90;;;;;;5039252;28;20495;-58
2022/06/25 02:19:35;;;;;;;34.78;31.05;;;17.70;99.90;;;;;;5038020;28;20733;-58
2022/06/25 02:22:01;;;;;;;34.28;30.80;;;17.60;99.90;;;;;;5029310;28;20088;-58
2022/06/25 02:24:26;;;;;;;35.20;31.48;;;17.60;99.90;;;;;;5018183;28;20065;-58
2022/06/25 02:26:52;;;;;;;32.25;28.85;;;17.60;99.90;;;;;;5019662;28;20125;-57
2022/06/25 02:29:18;;;;;;;34.47;30.88;;;17.50;99.90;;;;;;5018230;28;20049;-58
2022/06/25 02:31:43;;;;;;;33.83;30.30;;;17.50;99.90;;;;;;5019162;28;20037;-58
2022/06/25 02:34:09;;;;;;;31.45;28.08;;;17.50;99.90;;;;;;5019118;28;20065;-57
2022/06/25 02:36:34;;;;;;;31.92;28.50;;;17.40;99.90;;;;;;5018544;28;20132;-57
2022/06/25 02:39:00;;;;;;;31.17;27.98;;;17.40;99.90;;;;;;5019322;28;20056;-57
2022/06/25 02:41:26;;;;;;;34.13;30.63;;;17.40;99.90;;;;;;5017960;28;20045;-58
2022/06/25 02:43:52;;;;;;;33.67;30.17;;;17.40;99.90;;;;;;5019279;28;20474;-58
2022/06/25 02:46:17;;;;;;;31.73;28.55;;;17.40;99.90;;;;;;5020127;28;20045;-57
2022/06/25 02:48:43;;;;;;;32.45;29.17;;;17.40;99.90;;;;;;5022773;28;20064;-57
2022/06/25 02:51:09;;;;;;;30.90;27.20;;;17.40;99.90;;;;;;5026368;28;20095;-58
2022/06/25 02:53:34;;;;;;;30.83;27.63;;;17.40;99.90;;;;;;5041796;28;20045;-58
2022/06/25 02:58:56;;;;;;;30.67;25.63;;;17.30;99.90;;;;;;5041163;28;20059;-57
2022/06/25 03:01:26;;;;;;;;;;;17.30;99.90;;;;;;5043097;28;20470;-58
2022/06/25 03:03:53;;;;;;;30.70;27.40;;;17.30;99.90;;;;;;5041884;28;19927;-58
2022/06/25 03:06:19;;;;;;;29.52;26.20;;;17.30;99.90;;;;;;5041881;28;20045;-58
2022/06/25 03:08:46;;;;;;;29.45;26.27;;;17.20;99.90;;;;;;5040750;28;20528;-59
2022/06/25 03:11:11;;;;;;;29.02;26.05;;;17.30;99.90;;;;;;5041121;28;20048;-59
2022/06/25 03:13:37;;;;;;;30.25;27.08;;;17.30;99.90;;;;;;5042406;28;20046;-58
2022/06/25 03:16:05;;;;;;;29.52;25.23;;;17.30;99.90;;;;;;5040894;28;20037;-58
2022/06/25 03:18:31;;;;;;;27.13;24.38;;;17.20;99.90;;;;;;5042311;28;20037;-58
2022/06/25 03:20:57;;;;;;;27.90;25.00;;;17.20;99.90;;;;;;5040022;28;20064;-58
2022/06/25 03:23:23;;;;;;;26.77;24.00;;;17.30;99.90;;;;;;5021702;28;20050;-58
2022/06/25 03:25:49;;;;;;;26.67;23.98;;;17.20;99.90;;;;;;5022305;28;20056;-57
2022/06/25 03:28:15;;;;;;;26.60;23.88;;;17.20;99.90;;;;;;5020992;28;20550;-58
2022/06/25 03:30:41;;;;;;;27.13;24.38;;;17.20;99.90;;;;;;5022293;28;20073;-57
2022/06/25 03:33:07;;;;;;;27.35;24.45;;;17.20;99.90;;;;;;5021014;28;20044;-58
2022/06/25 03:35:33;;;;;;;25.80;23.17;;;17.20;99.90;;;;;;5022194;28;20050;-58
2022/06/25 03:37:59;;;;;;;25.40;22.65;;;17.20;99.90;;;;;;5021129;28;20061;-59
2022/06/25 03:40:24;;;;;;;25.60;22.88;;;17.20;99.90;;;;;;5021274;28;20038;-58
2022/06/25 03:42:50;;;;;;;26.23;23.42;;;17.20;99.90;;;;;;5021599;28;20065;-58
2022/06/25 03:45:16;;;;;;;28.17;21.75;;;17.20;99.90;;;;;;5020717;28;20098;-58
2022/06/25 03:47:43;;;;;;;24.58;21.80;;;17.20;99.90;;;;;;5021862;28;20413;-58
2022/06/25 03:50:09;;;;;;;25.00;22.38;;;17.10;99.90;;;;;;5019106;28;20054;-58
2022/06/25 03:52:34;;;;;;;26.35;23.48;;;17.10;99.90;;;;;;5037650;28;20147;-57
2022/06/25 03:55:00;;;;;;;25.40;21.55;;;17.10;99.90;;;;;;5040581;28;20504;-57
2022/06/25 03:57:26;;;;;;;24.63;21.65;;;17.10;99.90;;;;;;5040437;28;20136;-58
2022/06/25 03:59:52;;;;;;;23.90;21.13;;;17.10;99.90;;;;;;5041168;28;20041;-58
2022/06/25 04:02:17;;;;;;;23.02;20.58;;;17.20;99.90;;;;;;5040408;28;20110;-57
2022/06/25 04:04:43;;;;;;;23.65;21.13;;;17.20;99.90;;;;;;5041586;28;20468;-57
2022/06/25 04:07:09;;;;;;;23.35;20.95;;;17.20;99.90;;;;;;5039825;28;20954;-57
2022/06/25 04:09:35;;;;;;;21.27;19.08;;;17.20;99.90;;;;;;5041615;28;20049;-58
2022/06/25 04:12:00;;;;;;;24.85;22.27;;;17.30;99.90;;;;;;5040057;28;20056;-58
2022/06/25 04:14:26;;;;;;;23.92;20.63;;;17.20;99.90;;;;;;5040677;28;20136;-56
2022/06/25 04:16:54;;;;;;;20.58;17.98;;;17.30;99.90;;;;;;5040626;28;20045;-57
2022/06/25 04:19:19;;;;;;;21.73;18.88;;;17.20;99.90;;;;;;5039028;28;20068;-58
2022/06/25 04:21:47;;;;;;;25.40;20.95;;;17.20;99.90;;;;;;5033069;28;20045;-58
2022/06/25 04:24:15;;;;;;;22.02;19.67;;;17.20;99.90;;;;;;5019774;28;20042;-57
2022/06/25 04:26:41;;;;;;;22.35;19.95;;;17.30;99.90;;;;;;5021191;28;20042;-58
2022/06/25 04:29:08;;;;;;;20.92;18.73;;;17.30;99.90;;;;;;5019905;28;20050;-57
2022/06/25 04:31:36;;;;;;;21.23;18.92;;;17.30;99.90;;;;;;5020888;28;20077;-58
2022/06/25 04:34:03;;;;;;;18.63;16.10;;;17.40;99.90;;;;;;5020203;28;20046;-58
2022/06/25 04:36:29;;;;;;;23.10;20.33;;;17.40;99.90;;;;;;5020045;28;20038;-58
2022/06/25 04:38:55;;;;;;;18.83;16.70;;;17.40;99.90;;;;;;5021121;28;20092;-57
2022/06/25 04:41:21;;;;;;;18.85;16.77;;;17.50;99.90;;;;;;5019563;28;20038;-58
2022/06/25 04:43:47;;;;;;;20.08;17.77;;;17.50;99.90;;;;;;5020897;28;20042;-58
2022/06/25 04:46:13;;;;;;;16.35;14.65;;;17.60;99.90;;;;;;5019386;28;20077;-57
2022/06/25 04:48:39;;;;;;;19.15;15.20;;;17.50;99.90;;;;;;5020401;28;20041;-58
2022/06/25 04:51:04;;;;;;;21.88;17.88;;;17.70;99.90;;;;;;5023558;28;20072;-58
2022/06/25 04:53:31;;;;;;;19.83;15.75;;;17.70;99.90;;;;;;5039656;28;20045;-58
2022/06/25 04:55:57;;;;;;;18.17;15.90;;;17.70;99.90;;;;;;5040365;28;20045;-58
2022/06/25 04:58:22;;;;;;;18.95;15.90;;;17.80;99.90;;;;;;5039034;28;20049;-58
2022/06/25 05:00:48;;;;;;;15.18;13.57;;;17.70;99.90;;;;;;5040709;28;20053;-58
2022/06/25 05:03:14;;;;;;;17.70;15.80;;;17.90;99.90;;;;;;5039132;28;20052;-58
2022/06/25 05:05:39;;;;;;;16.20;14.50;;;18.10;99.90;;;;;;5040334;28;20041;-59
2022/06/25 05:08:05;;;;;;;15.43;13.38;;;18.10;99.90;;;;;;5039293;28;20525;-58
2022/06/25 05:10:31;;;;;;;15.70;13.10;;;18.20;99.90;;;;;;5039376;28;20390;-58
2022/06/25 05:13:12;;;;;;;14.73;13.23;;;18.10;99.90;;;;;;5039987;28;20069;-58
2022/06/25 05:15:42;;;;;;;16.27;13.30;;;18.20;99.90;;;;;;5038353;28;20037;-58
2022/06/25 05:18:09;;;;;;;14.85;12.63;;;18.30;99.90;;;;;;5040444;28;20145;-57
2022/06/25 05:20:43;;;;;;;14.57;12.07;;;18.40;99.90;;;;;;5038946;28;20042;-58
2022/06/25 05:23:09;;;;;;;14.77;12.70;;;18.40;99.90;;;;;;5020229;28;21157;-58
2022/06/25 05:25:35;;;;;;;14.15;12.48;;;18.50;99.90;;;;;;5020096;28;20056;-59
2022/06/25 05:28:02;;;;;;;17.17;12.23;;;18.50;99.90;;;;;;5018904;28;20070;-60
2022/06/25 05:30:28;;;;;;;11.85;10.65;;;18.60;99.90;;;;;;5020124;28;20112;-60
2022/06/25 05:32:54;;;;;;;12.13;10.82;;;18.70;99.90;;;;;;5018768;28;20076;-59
2022/06/25 05:35:20;;;;;;;15.15;12.13;;;18.80;99.90;;;;;;5020298;28;20046;-59
2022/06/25 05:37:46;;;;;;;13.48;10.45;;;18.80;99.90;;;;;;5019006;28;20037;-58
2022/06/25 05:40:12;;;;;;;13.57;10.63;;;18.90;99.90;;;;;;5019506;28;20041;-58
2022/06/25 05:42:38;;;;;;;13.65;11.57;;;18.90;99.90;;;;;;5019468;28;20097;-58
2022/06/25 05:45:04;;;;;;;13.63;11.40;;;19.00;99.90;;;;;;5018626;28;20038;-58
2022/06/25 05:47:30;;;;;;;13.90;11.38;;;19.00;99.90;;;;;;5020138;28;20054;-59
2022/06/25 05:49:55;;;;;;;13.40;10.60;;;19.10;99.90;;;;;;5018776;28;20049;-59
2022/06/25 05:52:22;;;;;;;14.27;10.88;;;19.20;99.90;;;;;;5033908;28;20113;-59
2022/06/25 05:54:48;;;;;;;12.68;10.32;;;19.20;99.90;;;;;;5038420;28;20042;-59
2022/06/25 05:57:14;;;;;;;13.43;10.93;;;19.20;99.90;;;;;;5039268;28;20044;-59
2022/06/25 05:59:40;;;;;;;13.65;10.82;;;19.30;99.90;;;;;;5035281;28;20093;-58
2022/06/25 06:02:06;;;;;;;13.40;10.35;;;19.30;99.90;;;;;;5035438;28;20124;-58
2022/06/25 06:04:32;;;;;;;13.02;9.80;;;19.30;99.90;;;;;;5035226;28;20033;-58
2022/06/25 06:07:00;;;;;;;12.02;10.05;;;19.40;99.90;;;;;;5035183;28;20051;-59
2022/06/25 06:09:27;;;;;;;14.40;10.32;;;19.40;99.90;;;;;;5036531;28;20062;-58
2022/06/25 06:11:54;;;;;;;14.43;10.07;;;19.60;99.90;;;;;;5034627;28;20045;-59
2022/06/25 06:14:21;;;;;;;13.20;9.90;;;19.70;99.90;;;;;;5035800;28;20125;-58
2022/06/25 06:16:47;;;;;;;11.98;10.15;;;19.70;99.90;;;;;;5035614;28;20072;-58
2022/06/25 06:19:12;;;;;;;13.20;9.95;;;19.80;99.90;;;;;;5035243;28;20037;-59
2022/06/25 06:21:38;;;;;;;12.23;9.18;;;19.90;99.90;;;;;;5031680;28;20052;-58
2022/06/25 06:24:04;;;;;;;11.95;8.07;;;19.90;99.90;;;;;;5018732;28;20069;-59
2022/06/25 06:26:29;;;;;;;11.15;8.45;;;20.00;99.90;;;;;;5020306;28;20053;-58
2022/06/25 06:28:55;;;;;;;12.40;9.15;;;20.00;99.90;;;;;;5018816;28;20080;-59
2022/06/25 06:31:21;;;;;;;12.18;9.63;;;20.00;99.90;;;;;;5022293;28;20058;-59
2022/06/25 06:33:46;;;;;;;11.30;9.30;;;20.00;99.90;;;;;;5026764;28;20038;-58
2022/06/25 06:36:13;;;;;;;12.50;9.48;;;20.10;99.90;;;;;;5028168;28;20041;-58
2022/06/25 06:38:39;;;;;;;11.90;8.95;;;20.20;99.90;;;;;;5030266;28;20100;-58
2022/06/25 06:41:05;;;;;;;11.18;8.43;;;20.20;99.90;;;;;;5027119;28;20077;-58
2022/06/25 06:43:31;;;;;;;12.52;9.98;;;20.30;99.90;;;;;;5029941;28;20045;-58
2022/06/25 06:45:57;;;;;;;12.35;8.65;;;20.30;99.90;;;;;;5028313;28;20111;-58
2022/06/25 06:48:22;;;;;;;12.82;8.68;;;20.20;99.90;;;;;;5029029;28;20046;-58
2022/06/25 06:50:48;;;;;;;12.90;8.65;;;20.30;99.90;;;;;;5031558;28;20068;-59
2022/06/25 06:53:14;;;;;;;12.18;9.02;;;20.40;99.90;;;;;;5038204;28;20045;-59
2022/06/25 06:55:40;;;;;;;10.35;7.75;;;20.50;99.90;;;;;;5038885;28;20046;-59
2022/06/25 06:58:05;;;;;;;10.05;7.50;;;20.70;99.90;;;;;;5026462;28;20565;-59
2022/06/25 07:00:31;;;;;;;13.10;7.78;;;20.80;99.90;;;;;;5019803;28;20038;-59
2022/06/25 07:02:57;;;;;;;12.88;7.18;;;20.80;99.90;;;;;;5018146;28;20052;-58
2022/06/25 07:05:22;;;;;;;11.73;7.80;;;21.00;99.90;;;;;;5018165;28;20042;-59
2022/06/25 07:07:48;;;;;;;11.20;7.32;;;21.10;99.90;;;;;;5018333;28;20169;-58
2022/06/25 07:10:14;;;;;;;11.18;7.55;;;21.00;99.90;;;;;;5018613;28;20081;-59
2022/06/25 07:12:40;;;;;;;10.75;7.25;;;21.00;99.90;;;;;;5019079;28;20041;-59
2022/06/25 07:15:06;;;;;;;10.63;7.28;;;21.10;99.90;;;;;;5017937;28;20108;-59
2022/06/25 07:17:32;;;;;;;10.15;6.03;;;21.20;99.90;;;;;;5019319;28;20101;-62
2022/06/25 07:19:58;;;;;;;11.35;6.53;;;21.30;99.90;;;;;;5017795;28;20070;-59
2022/06/25 07:22:24;;;;;;;8.52;6.13;;;21.20;99.90;;;;;;5032420;28;20041;-59
2022/06/25 07:24:51;;;;;;;9.57;6.40;;;21.30;99.90;;;;;;5037479;28;20052;-59
2022/06/25 07:27:17;;;;;;;8.60;5.72;;;21.40;99.90;;;;;;5038011;28;20049;-59
2022/06/25 07:29:44;;;;;;;9.00;6.15;;;21.40;99.90;;;;;;5036822;28;20869;-59
2022/06/25 07:32:10;;;;;;;13.95;7.32;;;21.50;99.90;;;;;;5036429;28;20093;-58
2022/06/25 07:34:36;;;;;;;9.38;6.72;;;21.30;99.90;;;;;;5038251;28;20075;-59
2022/06/25 07:37:02;;;;;;;9.20;5.93;;;21.40;99.90;;;;;;5035706;28;20034;-59
2022/06/25 07:39:28;;;;;;;11.57;6.30;;;21.40;99.90;;;;;;5023741;28;20058;-59
2022/06/25 07:41:53;;;;;;;7.95;5.40;;;21.50;99.90;;;;;;5017548;28;20049;-59
2022/06/25 07:44:19;;;;;;;10.35;5.88;;;21.50;99.90;;;;;;5018419;28;20101;-59
2022/06/25 07:46:45;;;;;;;10.15;5.80;;;21.60;99.90;;;;;;5017885;28;20037;-58
2022/06/25 07:49:11;;;;;;;10.00;5.32;;;21.60;99.90;;;;;;5017901;28;20048;-59
2022/06/25 07:54:26;;;;;;;7.80;5.45;;;21.80;99.90;;;;;;5037021;28;20046;-60
2022/06/25 07:56:52;;;;;;;10.23;5.03;;;21.80;99.90;;;;;;5038626;28;20045;-58
2022/06/25 07:59:19;;;;;;;11.98;5.68;;;21.80;99.90;;;;;;5037252;28;20033;-58
2022/06/25 08:01:44;;;;;;;8.45;4.65;;;21.90;99.90;;;;;;5037654;28;20052;-58
2022/06/25 08:04:10;;;;;;;9.32;4.65;;;22.00;99.90;;;;;;5038133;28;20101;-58
2022/06/25 08:06:38;;;;;;;9.00;4.35;;;21.90;99.90;;;;;;5036993;28;20109;-59
2022/06/25 08:09:07;;;;;;;9.30;3.97;;;22.10;99.90;;;;;;5037991;28;20136;-58
2022/06/25 08:11:33;;;;;;;7.05;3.80;;;22.20;99.90;;;;;;5035090;28;20507;-58
2022/06/25 08:13:59;;;;;;;6.65;3.83;;;22.20;99.90;;;;;;5038154;28;20484;-59
2022/06/25 08:16:27;;;;;;;9.45;3.92;;;22.10;99.90;;;;;;5037106;28;20041;-58
2022/06/25 08:18:54;;;;;;;8.05;3.97;;;22.40;99.90;;;;;;5037214;28;20045;-59
2022/06/25 08:21:20;;;;;;;7.15;3.40;;;22.40;99.90;;;;;;5033214;28;20046;-58
2022/06/25 08:23:47;;;;;;;8.02;3.63;;;22.70;99.90;;;;;;5016579;28;20042;-59
2022/06/25 08:26:12;;;;;;;8.18;3.83;;;22.60;99.90;;;;;;5018284;28;20077;-59
2022/06/25 08:28:38;;;;;;;7.65;3.70;;;22.50;99.90;;;;;;5016511;28;20041;-59
2022/06/25 08:31:04;;;;;;;6.85;3.35;;;22.40;99.90;;;;;;5018014;28;20077;-58
2022/06/25 08:33:30;;;;;;;5.88;3.08;;;22.40;99.90;;;;;;5016919;28;20042;-59
2022/06/25 08:35:56;;;;;;;6.68;2.72;;;22.40;99.90;;;;;;5017030;28;20232;-59
2022/06/25 08:38:22;;;;;;;10.55;3.45;;;22.40;99.90;;;;;;5017675;28;20096;-59
2022/06/25 08:40:55;;;;;;;6.32;2.95;;;22.40;99.90;;;;;;5016517;28;20045;-59
2022/06/25 08:43:20;;;;;;;7.68;3.50;;;22.30;99.90;;;;;;5033273;28;20045;-59
2022/06/25 08:45:46;;;;;;;8.35;3.75;;;22.10;99.90;;;;;;5035622;28;20045;-58
2022/06/25 08:48:29;;;;;;;8.07;3.50;;;22.10;99.90;;;;;;5037309;28;20068;-58
2022/06/25 08:50:55;;;;;;;6.78;3.53;;;22.20;99.90;;;;;;5036460;28;20049;-59
2022/06/25 08:53:21;;;;;;;8.63;3.20;;;22.30;99.90;;;;;;5036618;28;20111;-59
2022/06/25 08:55:47;;;;;;;7.82;3.63;;;22.40;99.90;;;;;;5037155;28;20167;-61
2022/06/25 08:58:14;;;;;;;7.95;3.97;;;22.60;99.90;;;;;;5035416;28;20512;-59
2022/06/25 09:00:42;;;;;;;7.57;3.55;;;22.80;99.90;;;;;;5037432;28;20045;-59
2022/06/25 09:03:09;;;;;;;6.28;2.92;;;22.80;99.90;;;;;;5035932;28;20099;-59
2022/06/25 09:05:40;;;;;;;6.40;3.50;;;22.80;99.90;;;;;;5037165;28;20046;-59
2022/06/25 09:08:08;;;;;;;9.18;3.13;;;22.90;99.90;;;;;;5036298;28;20088;-59
2022/06/25 09:10:35;;;;;;;8.05;3.20;;;22.90;99.90;;;;;;5035307;28;20060;-58
2022/06/25 09:13:04;;;;;;;7.40;3.22;;;23.00;99.90;;;;;;5036902;28;20045;-58
2022/06/25 09:15:33;;;;;;;7.68;2.30;;;23.10;99.90;;;;;;5035330;28;20052;-58
2022/06/25 09:18:14;;;;;;;6.95;2.55;;;23.00;99.90;;;;;;5037139;28;20041;-58
2022/06/25 09:20:55;;;;;;;;;;;23.10;99.90;;;;;;5036266;28;20057;-58
2022/06/25 09:23:21;;;;;;;5.95;2.38;;;23.30;99.90;;;;;;5015650;28;19948;-58
2022/06/25 09:26:19;;;;;;;6.88;2.60;;;23.30;99.90;;;;;;5016677;28;20072;-59
2022/06/25 09:28:44;;;;;;;6.65;2.60;;;23.20;99.90;;;;;;5014988;28;20056;-59
2022/06/25 09:31:10;;;;;;;6.88;2.92;;;23.00;99.90;;;;;;5016615;28;20046;-57
2022/06/25 09:33:39;;;;;;;6.63;2.80;;;22.70;99.90;;;;;;5016162;28;20038;-59
2022/06/25 09:36:07;;;;;;;6.07;2.78;;;22.70;99.90;;;;;;5015490;28;20094;-58
2022/06/25 09:38:33;;;;;;;6.80;2.97;;;23.00;99.90;;;;;;5016757;28;20069;-59
2022/06/25 09:41:00;;;;;;;7.38;2.60;;;23.20;99.90;;;;;;5015608;28;20096;-59
2022/06/25 09:43:29;;;;;;;8.30;2.92;;;23.00;99.90;;;;;;5015632;28;20065;-59
2022/06/25 09:45:56;;;;;;;7.28;2.97;;;23.10;99.90;;;;;;5014753;28;20643;-59
2022/06/25 09:48:25;;;;;;;6.03;2.85;;;23.20;99.90;;;;;;5016703;28;20045;-59
2022/06/25 09:51:05;;;;;;;4.85;2.47;;;23.30;99.90;;;;;;5016900;28;20865;-59
2022/06/25 09:53:32;;;;;;;6.88;2.47;;;23.50;99.90;;;;;;5034545;28;20076;-58
2022/06/25 09:55:59;;;;;;;7.03;2.60;;;23.70;99.90;;;;;;5034854;28;20061;-59
2022/06/25 09:58:26;;;;;;;5.95;2.17;;;23.60;99.90;;;;;;5033834;28;20037;-58
2022/06/25 10:00:53;;;;;;;5.90;2.40;;;23.70;99.90;;;;;;5035840;28;20083;-60
2022/06/25 10:03:21;;;;;;;5.65;2.20;;;23.30;99.90;;;;;;5034409;28;20642;-60
2022/06/25 10:05:47;;;;;;;5.75;2.30;;;23.30;99.90;;;;;;5035481;28;20622;-60
2022/06/25 10:08:17;;;;;;;4.88;1.90;;;23.30;99.90;;;;;;5035380;28;20049;-59
2022/06/25 10:10:48;;;;;;;5.32;1.90;;;23.40;99.90;;;;;;5034452;28;20623;-60
2022/06/25 10:13:15;;;;;;;6.45;2.00;;;23.60;99.90;;;;;;5035673;28;20049;-59
2022/06/25 10:15:40;;;;;;;4.78;1.70;;;23.80;99.90;;;;;;5033966;28;20052;-60
2022/06/25 10:18:09;;;;;;;4.97;1.60;;;24.00;99.90;;;;;;5035934;28;20037;-58
2022/06/25 10:20:36;;;;;;;5.40;1.70;;;24.30;99.90;;;;;;5034996;28;20041;-59
2022/06/25 10:23:05;;;;;;;4.70;1.70;;;24.20;99.90;;;;;;5016507;28;20046;-59
2022/06/25 10:25:31;;;;;;;6.20;1.90;;;23.90;99.90;;;;;;5015939;28;20045;-59
2022/06/25 10:28:15;;;;;;;4.32;1.70;;;24.00;99.90;;;;;;5015292;28;20045;-59
2022/06/25 10:30:49;;;;;;;5.18;1.70;;;24.00;99.90;;;;;;5016424;28;20105;-59
2022/06/25 10:33:21;;;;;;;6.18;1.73;;;24.10;99.90;;;;;;5015178;28;20081;-58
2022/06/25 10:35:48;;;;;;;6.95;1.73;;;24.10;99.90;;;;;;5015302;28;20072;-59
2022/06/25 10:38:16;;;;;;;5.88;1.60;;;24.10;99.90;;;;;;5015800;28;20121;-59
2022/06/25 10:42:58;;;;;;;4.22;1.33;;;23.70;99.90;;;;;;5015115;28;20101;-60
2022/06/25 10:43:47;;;;;;;4.82;1.70;;;24.00;99.90;;;;;;5023259;28;20099;-60
2022/06/25 10:46:21;;;;;;;4.05;1.40;;;23.90;99.90;;;;;;5034116;28;20093;-59
2022/06/25 10:48:58;;;;;;;5.68;1.23;;;24.00;99.90;;;;;;5035396;28;20081;-59
2022/06/25 10:51:32;;;;;;;4.38;1.48;;;23.70;99.90;;;;;;5035595;28;20041;-59
2022/06/25 10:54:00;;;;;;;6.25;1.75;;;23.50;99.90;;;;;;5034720;28;20498;-60
2022/06/25 10:56:25;;;;;;;7.43;2.70;;;23.40;99.90;;;;;;5036193;28;20053;-59
2022/06/25 10:58:52;;;;;;;5.65;2.13;;;23.60;99.90;;;;;;5034001;28;20045;-59
2022/06/25 11:01:20;;;;;;;4.97;1.70;;;23.70;99.90;;;;;;5035676;28;20049;-59
2022/06/25 11:03:50;;;;;;;4.68;1.83;;;23.80;99.90;;;;;;5035017;28;20041;-60
2022/06/25 11:06:32;;;;;;;5.10;1.95;;;24.10;99.90;;;;;;5034946;28;20057;-59
2022/06/25 11:09:15;;;;;;;6.10;1.35;;;24.30;99.90;;;;;;5039314;28;20076;-59
2022/06/25 11:11:45;;;;;;;3.67;1.30;;;24.70;99.90;;;;;;5023753;28;20087;-60
2022/06/25 11:14:22;;;;;;;8.10;1.48;;;24.70;99.90;;;;;;5018544;28;20510;-60
2022/06/25 11:16:49;;;;;;;5.32;1.45;;;24.90;99.90;;;;;;5030647;28;20049;-59
2022/06/25 11:19:15;;;;;;;4.43;1.20;;;24.60;99.90;;;;;;5037278;28;20045;-61
2022/06/25 11:21:43;;;;;;;4.68;1.42;;;24.90;99.90;;;;;;5038950;28;20053;-60
2022/06/25 11:24:13;;;;;;;5.32;1.40;;;24.90;99.90;;;;;;5036664;28;20120;-59
2022/06/25 11:29:29;;;;;;;4.45;1.35;;;24.30;99.90;;;;;;5038167;28;20099;-59
2022/06/25 11:31:57;;;;;;;3.38;1.10;;;24.20;99.90;;;;;;5039595;28;20060;-60
2022/06/25 11:34:25;;;;;;;6.03;1.30;;;24.30;99.90;;;;;;5041749;28;20804;-59
2022/06/25 11:36:58;;;;;;;3.60;1.30;;;24.30;99.90;;;;;;5040465;28;20042;-59
2022/06/25 11:39:24;;;;;;;4.63;1.60;;;24.10;99.90;;;;;;5027718;28;20050;-60
2022/06/25 11:41:51;;;;;;;3.80;1.40;;;23.90;99.90;;;;;;5019708;28;20057;-58
2022/06/25 11:44:18;;;;;;;5.60;1.58;;;23.90;99.90;;;;;;5021303;28;20096;-58
2022/06/25 11:46:45;;;;;;;4.95;1.58;;;23.90;99.90;;;;;;5021272;28;20097;-59
2022/06/25 11:49:12;;;;;;;6.05;1.85;;;23.80;99.90;;;;;;5020788;28;20056;-59
2022/06/25 11:51:45;;;;;;;2.85;1.10;;;23.60;99.90;;;;;;5029500;28;20046;-60
2022/06/25 11:54:11;;;;;;;5.05;1.52;;;23.50;99.90;;;;;;5040154;28;20111;-59
2022/06/25 11:56:37;;;;;;;4.40;1.60;;;23.30;99.90;;;;;;5041805;28;20038;-59
2022/06/25 11:59:03;;;;;;;3.60;1.50;;;23.30;99.90;;;;;;5040496;28;20069;-60
2022/06/25 12:01:30;;;;;;;5.95;1.95;;;23.10;99.90;;;;;;5039620;28;20073;-59
2022/06/25 12:03:58;;;;;;;5.95;1.75;;;23.00;99.90;;;;;;5040869;28;20398;-59
2022/06/25 12:06:24;;;;;;;6.05;1.80;;;23.00;99.90;;;;;;5040111;28;20505;-59
2022/06/25 12:08:51;;;;;;;5.40;1.63;;;23.00;99.90;;;;;;5040799;28;20531;-59
2022/06/25 12:11:18;;;;;;;5.78;1.67;;;22.70;99.90;;;;;;5039372;28;20046;-60
2022/06/25 12:13:44;;;;;;;3.35;1.40;;;22.70;99.90;;;;;;5040807;28;20044;-59
2022/06/25 12:16:09;;;;;;;5.45;2.20;;;22.70;99.90;;;;;;5039440;28;20137;-59
2022/06/25 12:18:41;;;;;;;6.22;3.30;;;22.50;99.90;;;;;;5038639;28;20053;-59
2022/06/25 12:21:08;;;;;;;7.55;3.40;;;22.10;99.90;;;;;;5037309;28;20041;-60
2022/06/25 12:23:55;;;;;;;7.47;3.65;;;22.10;99.90;;;;;;5019711;28;20061;-59
2022/06/25 12:26:29;;;;;;;8.68;4.28;;;22.00;99.90;;;;;;5021371;28;20050;-60
2022/06/25 12:29:12;;;;;;;8.77;4.57;;;21.80;99.90;;;;;;5020007;28;20046;-59
2022/06/25 12:31:39;;;;;;;7.38;4.32;;;21.60;99.90;;;;;;5020109;28;20042;-59
2022/06/25 12:34:07;;;;;;;8.05;4.63;;;21.60;99.90;;;;;;5019990;28;20053;-59
2022/06/25 12:36:37;;;;;;;7.50;4.30;;;21.50;99.90;;;;;;5018927;28;20073;-60
2022/06/25 12:39:27;;;;;;;7.97;4.40;;;21.30;99.90;;;;;;5021025;28;20061;-59
2022/06/25 12:41:54;;;;;;;8.43;4.45;;;21.20;99.90;;;;;;5019479;28;20065;-59
2022/06/25 12:44:19;;;;;;;8.70;5.15;;;21.20;99.90;;;;;;5020081;28;20121;-59
2022/06/25 12:47:04;;;;;;;8.10;4.40;;;21.30;99.90;;;;;;5020451;28;20077;-60
2022/06/25 12:49:44;;;;;;;10.65;4.88;;;21.40;99.90;;;;;;5019493;28;20057;-59
2022/06/25 12:52:11;;;;;;;9.45;4.68;;;21.40;99.90;;;;;;5032959;28;20049;-59